Time;durP1;ratioP1;P1;durP2;ratioP2;P2;SDS_P1;SDS_P2;PMS_P1;PMS_P2;Temp;Humidity;BMP_temperature;BMP_pressure;BME280_temperature;BME280_humidity;BME280_pressure;Samples;Min_cycle;Max_cycle;Signal;HPM_P1;HPM_P2
2021/03/05 00:00:11;;;;;;;21.83;6.72;;;;;;;6.41;63.99;100792.91;5016536;28;20058;-74
2021/03/05 00:02:38;;;;;;;22.02;6.95;;;;;;;6.41;64.14;100792.91;5016735;28;20077;-73
2021/03/05 00:05:07;;;;;;;15.30;5.60;;;;;;;6.41;64.46;100790.16;5016099;28;20054;-73
2021/03/05 00:07:34;;;;;;;19.08;6.10;;;;;;;6.40;64.19;100798.72;5015198;28;20054;-74
2021/03/05 00:10:04;;;;;;;18.67;5.47;;;;;;;6.44;64.25;100803.41;4996986;28;20396;-74
2021/03/05 00:12:31;;;;;;;;;;;;;;;6.45;64.20;100805.09;4997116;28;20404;-74
2021/03/05 00:15:00;;;;;;;15.63;5.65;;;;;;;6.43;64.41;100801.78;4996957;28;19929;-74
2021/03/05 00:17:27;;;;;;;18.25;5.65;;;;;;;6.45;64.25;100805.09;4996803;28;20121;-74
2021/03/05 00:19:54;;;;;;;15.18;5.35;;;;;;;6.48;64.26;100806.47;4996073;28;20062;-74
2021/03/05 00:22:20;;;;;;;20.38;6.13;;;;;;;6.49;64.33;100800.66;4996102;28;20077;-74
2021/03/05 00:24:47;;;;;;;14.60;5.30;;;;;;;6.51;64.18;100797.63;4997525;28;20061;-74
2021/03/05 00:27:15;;;;;;;17.00;6.57;;;;;;;6.55;64.02;100803.41;5021686;28;20053;-75
2021/03/05 00:29:42;;;;;;;15.45;5.93;;;;;;;6.53;63.92;100802.84;5035100;28;20060;-74
2021/03/05 00:32:09;;;;;;;16.10;5.28;;;;;;;6.52;64.48;100810.34;5044802;28;20541;-75
2021/03/05 00:34:36;;;;;;;14.40;5.78;;;;;;;6.57;64.77;100821.38;5054939;28;20053;-74
2021/03/05 00:37:03;;;;;;;18.05;6.05;;;;;;;6.59;64.84;100810.03;5055025;28;20060;-74
2021/03/05 00:39:32;;;;;;;18.95;6.15;;;;;;;6.63;64.58;100811.13;5054187;28;20485;-74
2021/03/05 00:41:59;;;;;;;16.13;5.97;;;;;;;6.62;64.66;100807.56;5055357;28;20053;-74
2021/03/05 00:44:27;;;;;;;18.58;5.53;;;;;;;6.65;64.49;100811.69;5055351;28;20390;-74
2021/03/05 00:46:53;;;;;;;14.57;5.05;;;;;;;6.66;64.34;100816.13;5050979;28;20041;-74
2021/03/05 00:49:20;;;;;;;20.70;7.30;;;;;;;6.68;64.10;100825.00;5034949;28;20057;-74
2021/03/05 00:51:47;;;;;;;14.77;4.95;;;;;;;6.71;63.41;100824.41;5034854;28;20487;-74
2021/03/05 00:54:15;;;;;;;16.23;7.20;;;;;;;6.70;63.72;100828.31;5035458;28;20056;-74
2021/03/05 00:56:41;;;;;;;16.67;5.30;;;;;;;6.67;63.41;100826.09;5034987;28;20061;-74
2021/03/05 00:59:08;;;;;;;20.95;5.88;;;;;;;6.67;63.69;100832.44;5035607;28;20056;-74
2021/03/05 01:01:36;;;;;;;18.90;6.50;;;;;;;6.64;63.97;100833.00;5035710;28;20045;-74
2021/03/05 01:04:05;;;;;;;14.45;6.63;;;;;;;6.59;63.73;100837.72;5034900;28;20472;-74
2021/03/05 01:06:32;;;;;;;18.88;7.35;;;;;;;6.52;64.29;100837.19;5034720;28;20064;-74
2021/03/05 01:08:59;;;;;;;21.17;7.90;;;;;;;6.46;64.61;100841.88;5035027;28;20080;-74
2021/03/05 01:11:28;;;;;;;25.55;8.82;;;;;;;6.45;64.52;100834.69;5035143;28;20053;-74
2021/03/05 01:13:55;;;;;;;17.85;8.07;;;;;;;6.40;64.93;100829.97;5034763;28;20054;-74
2021/03/05 01:16:22;;;;;;;22.40;10.45;;;;;;;6.38;65.52;100834.13;5037292;28;20053;-74
2021/03/05 01:18:49;;;;;;;24.38;10.20;;;;;;;6.35;66.30;100838.28;5054486;28;20049;-74
2021/03/05 01:21:17;;;;;;;22.45;10.70;;;;;;;6.37;66.17;100844.38;5055024;28;20371;-74
2021/03/05 01:23:44;;;;;;;31.75;12.45;;;;;;;6.37;66.20;100841.63;5050821;28;20406;-74
2021/03/05 01:26:10;;;;;;;26.40;11.32;;;;;;;6.41;66.27;100845.50;5034574;28;20053;-74
2021/03/05 01:28:40;;;;;;;24.70;11.65;;;;;;;6.41;66.59;100848.25;5034995;28;20380;-74
2021/03/05 01:31:07;;;;;;;24.55;10.85;;;;;;;6.46;66.07;100845.47;5034980;28;20064;-74
2021/03/05 01:33:34;;;;;;;26.40;11.30;;;;;;;6.44;66.02;100849.63;5053266;28;20049;-74
2021/03/05 01:36:02;;;;;;;28.27;11.57;;;;;;;6.46;65.99;100850.19;5054348;28;20485;-74
2021/03/05 01:38:29;;;;;;;22.00;11.25;;;;;;;6.48;66.60;100851.56;5051582;28;20045;-74
2021/03/05 01:40:56;;;;;;;26.27;10.98;;;;;;;6.45;66.42;100856.84;5034355;28;20053;-74
2021/03/05 01:43:22;;;;;;;26.75;10.88;;;;;;;6.50;66.45;100846.56;5034493;28;20053;-74
2021/03/05 01:45:49;;;;;;;33.42;11.05;;;;;;;6.48;66.26;100843.25;5033669;28;20049;-74
2021/03/05 01:48:18;;;;;;;33.92;12.80;;;;;;;6.52;66.34;100843.53;5034443;28;20365;-74
2021/03/05 01:50:52;;;;;;;24.90;11.90;;;;;;;6.46;66.20;100845.47;5033973;28;20053;-74
2021/03/05 01:53:21;;;;;;;25.65;11.50;;;;;;;6.39;66.89;100860.72;5034634;28;20045;-74
2021/03/05 01:55:48;;;;;;;24.55;12.63;;;;;;;6.35;66.43;100852.13;5033835;28;20506;-74
2021/03/05 01:58:15;;;;;;;30.02;12.27;;;;;;;6.30;67.22;100852.13;5034022;28;20050;-74
2021/03/05 02:00:44;;;;;;;24.88;13.57;;;;;;;6.28;66.76;100855.19;5034241;28;20064;-74
2021/03/05 02:03:11;;;;;;;30.35;13.23;;;;;;;6.26;67.36;100862.09;5034190;28;20414;-74
2021/03/05 02:05:39;;;;;;;24.80;13.75;;;;;;;6.22;67.14;100861.00;5034245;28;20056;-74
2021/03/05 02:08:09;;;;;;;24.17;13.82;;;;;;;6.18;67.23;100866.22;5035058;28;20049;-74
2021/03/05 02:10:37;;;;;;;24.90;13.93;;;;;;;6.19;67.55;100867.06;5044254;28;20045;-74
2021/03/05 02:13:11;;;;;;;29.27;13.82;;;;;;;6.17;67.28;100870.09;5053226;28;20045;-74
2021/03/05 02:15:45;;;;;;;26.00;14.43;;;;;;;6.21;67.92;100870.38;5057171;28;20056;-74
2021/03/05 02:18:26;;;;;;;25.50;15.40;;;;;;;6.18;67.31;100882.00;5056201;28;20060;-74
2021/03/05 02:21:20;;;;;;;24.88;14.40;;;;;;;6.19;67.12;100880.88;5053629;28;20057;-74
2021/03/05 02:24:04;;;;;;;25.77;14.50;;;;;;;6.17;66.88;100880.31;5045594;28;20487;-74
2021/03/05 02:27:05;;;;;;;25.73;14.73;;;;;;;6.14;66.45;100880.88;5033212;28;20129;-74
2021/03/05 02:30:20;;;;;;;21.67;14.18;;;;;;;6.10;66.20;100881.41;5033344;28;20053;-74
2021/03/05 02:32:54;;;;;;;23.23;14.52;;;;;;;6.07;66.03;100886.69;4966738;28;20054;-74
2021/03/05 02:35:23;;;;;;;25.00;15.25;;;;;;;6.09;65.34;100893.59;5038026;28;20055;-74
2021/03/05 02:37:53;;;;;;;22.92;15.05;;;;;;;6.07;65.91;100887.53;5053064;28;20503;-74
2021/03/05 02:40:26;;;;;;;23.45;14.57;;;;;;;6.06;65.68;100885.03;5052372;28;20060;-75
2021/03/05 02:42:57;;;;;;;21.75;14.48;;;;;;;6.06;65.46;100896.91;5052933;28;20059;-74
2021/03/05 02:45:43;;;;;;;22.42;15.25;;;;;;;6.01;65.60;100905.19;5054837;28;20076;-74
2021/03/05 02:48:24;;;;;;;23.83;16.17;;;;;;;6.03;65.87;100902.16;5058090;28;20057;-74
2021/03/05 02:50:57;;;;;;;20.85;14.32;;;;;;;6.07;65.63;100904.09;5053268;28;20060;-74
2021/03/05 02:53:26;;;;;;;25.30;15.20;;;;;;;6.09;66.17;100912.97;5049702;28;20053;-74
2021/03/05 02:55:56;;;;;;;22.10;15.30;;;;;;;6.08;65.46;100904.94;5033512;28;20064;-74
2021/03/05 02:58:25;;;;;;;20.92;14.63;;;;;;;6.06;65.34;100913.50;5032715;28;20064;-74
2021/03/05 03:00:56;;;;;;;21.45;14.30;;;;;;;6.08;65.48;100916.00;5032582;28;20049;-74
2021/03/05 03:03:25;;;;;;;18.85;12.98;;;;;;;6.05;64.80;100914.63;5032847;28;20073;-74
2021/03/05 03:05:53;;;;;;;21.93;14.80;;;;;;;6.00;65.08;100914.59;5032691;28;20482;-74
2021/03/05 03:08:22;;;;;;;20.92;13.95;;;;;;;6.02;64.95;100915.16;5033087;28;20080;-74
2021/03/05 03:10:49;;;;;;;21.45;13.35;;;;;;;6.02;64.95;100912.38;5033381;28;20049;-74
2021/03/05 03:13:18;;;;;;;23.50;13.65;;;;;;;6.01;64.72;100918.22;5034261;28;20064;-74
2021/03/05 03:15:45;;;;;;;20.02;13.30;;;;;;;6.00;64.67;100920.13;5034192;28;20057;-74
2021/03/05 03:18:14;;;;;;;20.73;13.48;;;;;;;6.01;64.48;100927.31;5033729;28;20060;-74
2021/03/05 03:20:43;;;;;;;20.27;14.03;;;;;;;6.03;64.83;100927.06;5033483;28;20072;-75
2021/03/05 03:23:10;;;;;;;20.77;13.57;;;;;;;6.00;64.20;100931.19;5033889;28;20410;-74
2021/03/05 03:25:37;;;;;;;20.75;13.90;;;;;;;5.95;64.45;100939.47;5034667;28;20057;-74
2021/03/05 03:28:05;;;;;;;20.35;14.48;;;;;;;5.98;64.89;100944.44;5034551;28;20061;-75
2021/03/05 03:30:32;;;;;;;19.98;13.57;;;;;;;5.98;64.94;100944.44;5034403;28;20049;-74
2021/03/05 03:32:59;;;;;;;18.63;12.75;;;;;;;5.94;64.36;100948.81;5050066;28;20059;-74
2021/03/05 03:35:26;;;;;;;17.48;11.73;;;;;;;5.96;64.10;100952.19;5053007;28;20492;-74
2021/03/05 03:37:57;;;;;;;18.65;12.80;;;;;;;5.96;64.39;100952.19;5053480;28;20045;-74
2021/03/05 03:40:25;;;;;;;17.63;11.82;;;;;;;5.93;64.35;100952.69;5035057;28;20058;-74
2021/03/05 03:42:55;;;;;;;17.40;11.68;;;;;;;5.96;63.74;100959.66;5032275;28;20064;-74
2021/03/05 03:45:23;;;;;;;17.20;11.82;;;;;;;5.96;63.83;100957.72;5032309;28;20054;-74
2021/03/05 03:47:53;;;;;;;16.00;10.48;;;;;;;5.97;63.63;100959.38;5033260;28;20068;-74
2021/03/05 03:50:40;;;;;;;14.27;10.60;;;;;;;5.98;62.78;100966.56;5035660;28;20053;-74
2021/03/05 03:53:16;;;;;;;16.67;11.35;;;;;;;5.98;63.59;100966.56;5037941;28;20060;-74
2021/03/05 03:55:45;;;;;;;15.32;10.60;;;;;;;5.97;63.18;100966.84;5040445;28;20054;-73
2021/03/05 03:58:21;;;;;;;15.50;10.80;;;;;;;5.96;62.98;100979.00;5042280;28;20045;-74
2021/03/05 04:00:54;;;;;;;15.90;10.48;;;;;;;5.96;62.99;100979.00;5042356;28;20057;-74
2021/03/05 04:03:35;;;;;;;15.63;11.48;;;;;;;6.03;63.00;100977.66;5041732;28;20053;-74
2021/03/05 04:06:13;;;;;;;14.65;10.25;;;;;;;6.08;62.74;100965.78;5053959;28;20057;-74
2021/03/05 04:08:46;;;;;;;15.90;10.77;;;;;;;6.08;62.57;100976.84;5044254;28;20493;-74
2021/03/05 04:11:30;;;;;;;13.98;9.60;;;;;;;6.03;62.36;100977.66;5041939;28;20060;-74
2021/03/05 04:14:00;;;;;;;14.70;10.68;;;;;;;6.06;62.11;100984.56;5041477;28;20053;-74
2021/03/05 04:16:32;;;;;;;;;;;;;;;6.00;62.49;100991.19;5041934;28;20053;-74
2021/03/05 04:19:03;;;;;;;14.93;10.63;;;;;;;5.98;62.33;100998.91;5041620;28;19928;-74
2021/03/05 04:21:36;;;;;;;14.15;10.60;;;;;;;5.94;62.13;101004.13;5041804;28;20470;-74
2021/03/05 04:24:11;;;;;;;15.18;10.65;;;;;;;5.92;61.99;101011.03;5041437;28;20045;-73
2021/03/05 04:26:45;;;;;;;13.32;10.10;;;;;;;5.91;62.68;101010.19;5041456;28;20053;-74
2021/03/05 04:29:16;;;;;;;14.52;10.23;;;;;;;5.86;62.43;101008.25;5041375;28;20054;-74
2021/03/05 04:31:50;;;;;;;12.70;9.43;;;;;;;5.86;61.84;101019.31;5047805;28;20049;-74
2021/03/05 04:34:19;;;;;;;11.75;8.90;;;;;;;5.84;61.83;101023.44;5061851;28;20061;-74
2021/03/05 04:36:51;;;;;;;12.20;8.95;;;;;;;5.83;61.56;101030.06;5061084;28;20382;-74
2021/03/05 04:39:25;;;;;;;12.20;8.55;;;;;;;5.77;61.66;101036.66;5034762;28;20050;-74
2021/03/05 04:42:04;;;;;;;12.32;8.55;;;;;;;5.69;61.65;101035.22;5042300;28;20061;-74
2021/03/05 04:44:34;;;;;;;;;;;;;;;5.65;61.83;101037.72;5042473;28;20471;-74
2021/03/05 04:47:03;;;;;;;10.90;7.60;;;;;;;5.59;62.21;101041.56;5041723;28;19921;-74
2021/03/05 04:49:30;;;;;;;10.32;7.32;;;;;;;5.57;61.61;101049.28;5039748;28;20064;-74
2021/03/05 04:51:56;;;;;;;11.13;7.35;;;;;;;5.56;61.24;101057.81;5035001;28;20057;-74
2021/03/05 04:54:24;;;;;;;8.80;6.63;;;;;;;5.52;60.86;101051.16;5035258;28;20049;-74
2021/03/05 04:56:51;;;;;;;8.80;5.78;;;;;;;5.48;60.37;101051.72;5035152;28;20402;-74
2021/03/05 04:59:18;;;;;;;8.98;5.28;;;;;;;5.45;59.98;101059.69;5035292;28;20049;-74
2021/03/05 05:01:47;;;;;;;8.50;4.28;;;;;;;5.34;59.00;101058.78;5034538;28;20054;-74
2021/03/05 05:04:14;;;;;;;6.00;3.95;;;;;;;5.32;58.95;101068.44;5035105;28;20078;-74
2021/03/05 05:06:41;;;;;;;6.55;4.07;;;;;;;5.23;58.48;101066.16;5034154;28;20062;-74
2021/03/05 05:09:07;;;;;;;5.18;3.17;;;;;;;5.20;58.18;101074.97;5035441;28;20064;-74
2021/03/05 05:11:35;;;;;;;6.32;3.95;;;;;;;5.09;58.51;101070.47;5034777;28;20061;-74
2021/03/05 05:14:02;;;;;;;5.55;2.90;;;;;;;5.08;58.48;101085.34;5034745;28;20049;-74
2021/03/05 05:16:29;;;;;;;3.60;2.42;;;;;;;5.04;58.59;101090.59;5035205;28;20049;-74
2021/03/05 05:18:56;;;;;;;4.78;3.40;;;;;;;5.00;58.93;101083.09;5034886;28;20049;-74
2021/03/05 05:21:23;;;;;;;6.55;3.03;;;;;;;5.00;58.36;101077.56;5034821;28;20053;-75
2021/03/05 05:23:50;;;;;;;4.53;2.70;;;;;;;4.99;58.98;101081.41;5035023;28;20060;-74
2021/03/05 05:26:17;;;;;;;6.25;3.15;;;;;;;4.99;58.85;101086.94;5034406;28;20053;-74
2021/03/05 05:28:45;;;;;;;5.70;3.05;;;;;;;4.95;59.46;101091.31;5034399;28;20403;-74
2021/03/05 05:31:12;;;;;;;4.60;2.85;;;;;;;4.94;59.30;101089.66;5035331;28;20060;-74
2021/03/05 05:33:38;;;;;;;4.45;2.58;;;;;;;4.95;58.62;101096.84;5054038;28;20041;-74
2021/03/05 05:36:06;;;;;;;5.65;2.70;;;;;;;4.91;58.67;101095.69;5053917;28;20057;-74
2021/03/05 05:38:33;;;;;;;4.78;2.83;;;;;;;4.86;58.14;101094.53;5053150;28;20056;-74
2021/03/05 05:41:00;;;;;;;6.45;2.75;;;;;;;4.80;58.61;101108.56;5053466;28;20410;-74
2021/03/05 05:43:30;;;;;;;4.85;2.30;;;;;;;4.76;58.34;101111.00;5053689;28;20056;-74
2021/03/05 05:46:01;;;;;;;;;;;;;;;4.70;58.18;101112.03;5054041;28;20056;-75
2021/03/05 05:48:28;;;;;;;4.63;2.10;;;;;;;4.62;58.60;101118.88;5053878;28;19928;-75
2021/03/05 05:51:06;;;;;;;4.80;2.22;;;;;;;4.64;57.91;101124.97;5056551;28;20048;-74
2021/03/05 05:53:40;;;;;;;4.88;2.63;;;;;;;4.64;57.30;101115.81;5052683;28;20064;-74
2021/03/05 05:56:15;;;;;;;5.63;2.70;;;;;;;4.58;57.38;101122.41;5037139;28;20068;-74
2021/03/05 05:58:49;;;;;;;4.25;2.45;;;;;;;4.43;57.62;101123.91;5037911;28;20054;-74
2021/03/05 06:01:23;;;;;;;8.00;2.85;;;;;;;4.37;58.30;101135.94;5039785;28;20061;-74
2021/03/05 06:03:52;;;;;;;6.30;2.60;;;;;;;4.37;58.01;101132.38;5040235;28;20049;-74
2021/03/05 06:06:29;;;;;;;4.80;2.28;;;;;;;4.36;57.92;101137.03;5039493;28;20046;-74
2021/03/05 06:09:02;;;;;;;5.53;2.42;;;;;;;4.29;58.04;101139.16;5038530;28;20128;-74
2021/03/05 06:11:41;;;;;;;3.88;2.55;;;;;;;4.18;57.96;101146.47;5041503;28;20072;-74
2021/03/05 06:14:11;;;;;;;5.93;3.25;;;;;;;4.16;58.88;101156.06;5052947;28;20056;-74
2021/03/05 06:16:56;;;;;;;6.47;2.92;;;;;;;4.15;58.11;101157.97;5040496;28;20061;-74
2021/03/05 06:19:30;;;;;;;6.22;2.70;;;;;;;4.06;58.79;101157.59;5051599;28;20069;-74
2021/03/05 06:21:59;;;;;;;5.78;2.83;;;;;;;3.97;58.79;101164.63;5036215;28;20057;-74
2021/03/05 06:24:29;;;;;;;5.68;2.65;;;;;;;3.86;59.39;101173.81;5035797;28;20117;-74
2021/03/05 06:27:03;;;;;;;5.25;2.60;;;;;;;3.77;58.77;101178.09;5034940;28;20068;-74
2021/03/05 06:29:41;;;;;;;5.40;2.60;;;;;;;3.64;59.27;101196.63;5034324;28;20057;-74
2021/03/05 06:32:16;;;;;;;5.65;2.35;;;;;;;3.53;59.97;101197.56;5043448;28;20060;-74
2021/03/05 06:34:46;;;;;;;4.80;2.55;;;;;;;3.47;59.97;101197.72;5053937;28;20049;-74
2021/03/05 06:37:23;;;;;;;6.95;2.97;;;;;;;3.34;60.05;101204.38;5057064;28;20064;-74
2021/03/05 06:39:59;;;;;;;5.25;2.90;;;;;;;3.28;60.46;101210.88;5056791;28;20056;-74
2021/03/05 06:42:27;;;;;;;5.45;3.00;;;;;;;3.20;60.98;101229.47;5057319;28;20052;-74
2021/03/05 06:44:55;;;;;;;6.00;3.10;;;;;;;3.17;61.38;101240.13;5055874;28;20045;-74
2021/03/05 06:47:25;;;;;;;4.80;2.78;;;;;;;3.10;60.60;101236.69;5037819;28;20064;-74
2021/03/05 06:49:52;;;;;;;7.72;3.58;;;;;;;3.10;61.08;101245.78;5045377;28;20056;-74
2021/03/05 06:52:20;;;;;;;8.05;3.70;;;;;;;3.07;60.62;101253.69;5044800;28;20048;-75
2021/03/05 06:54:49;;;;;;;6.45;3.00;;;;;;;3.02;60.87;101251.66;5044504;28;20438;-74
2021/03/05 06:57:27;;;;;;;7.63;2.90;;;;;;;3.07;60.82;101251.78;5044389;28;20506;-74
2021/03/05 06:59:54;;;;;;;5.25;3.13;;;;;;;3.10;60.72;101258.72;5041469;28;20494;-74
2021/03/05 07:02:31;;;;;;;6.18;2.70;;;;;;;3.11;60.87;101266.72;5035892;28;20053;-74
2021/03/05 07:05:00;;;;;;;6.65;3.45;;;;;;;3.17;60.20;101270.41;5052678;28;20053;-75
2021/03/05 07:07:27;;;;;;;;;;;;;;;3.17;60.47;101275.91;5039718;28;20056;-75
2021/03/05 07:09:55;;;;;;;6.82;2.90;;;;;;;3.18;60.18;101283.09;5037488;28;19943;-74
2021/03/05 07:12:24;;;;;;;6.97;2.58;;;;;;;3.26;60.14;101296.47;5044336;28;20384;-73
2021/03/05 07:15:00;;;;;;;5.20;2.67;;;;;;;3.37;59.99;101289.25;5032885;28;20053;-73
2021/03/05 07:17:29;;;;;;;6.70;3.25;;;;;;;3.40;59.94;101291.50;5033388;28;20050;-73
2021/03/05 07:19:56;;;;;;;7.30;2.88;;;;;;;3.61;58.79;101307.34;5038841;28;20399;-74
2021/03/05 07:22:27;;;;;;;5.72;2.95;;;;;;;3.76;58.66;101308.69;5053392;28;20049;-73
2021/03/05 07:24:55;;;;;;;6.97;3.05;;;;;;;3.94;58.37;101310.38;5039626;28;20054;-73
2021/03/05 07:27:28;;;;;;;7.35;2.90;;;;;;;4.01;57.29;101314.66;5033144;28;20117;-73
2021/03/05 07:29:57;;;;;;;4.40;2.65;;;;;;;4.13;57.58;101316.47;5034151;28;20065;-73
2021/03/05 07:32:35;;;;;;;6.27;2.53;;;;;;;4.23;57.51;101319.41;5040023;28;20061;-73
2021/03/05 07:35:05;;;;;;;9.05;4.68;;;;;;;4.36;56.89;101316.28;5044058;28;20057;-74
2021/03/05 07:37:36;;;;;;;5.68;2.95;;;;;;;4.52;56.05;101324.81;5048668;28;20056;-73
2021/03/05 07:40:06;;;;;;;6.82;2.63;;;;;;;4.55;56.46;101330.66;5050591;28;20067;-73
2021/03/05 07:42:33;;;;;;;7.45;3.20;;;;;;;4.68;55.92;101319.28;5053560;28;20052;-73
2021/03/05 07:45:03;;;;;;;7.40;2.60;;;;;;;4.77;55.53;101333.47;5055546;28;20056;-73
2021/03/05 07:47:31;;;;;;;6.97;3.08;;;;;;;4.82;55.16;101330.78;5051119;28;20064;-73
2021/03/05 07:49:59;;;;;;;7.47;3.15;;;;;;;4.84;55.55;101338.81;5053515;28;20046;-72
2021/03/05 07:52:30;;;;;;;6.05;2.70;;;;;;;4.88;55.81;101346.31;5046905;28;20515;-72
2021/03/05 07:55:01;;;;;;;5.22;2.63;;;;;;;4.92;55.05;101351.34;5050067;28;20076;-73
2021/03/05 07:57:49;;;;;;;5.95;2.97;;;;;;;5.04;55.34;101352.03;5051760;28;20045;-73
2021/03/05 08:00:48;;;;;;;7.53;2.58;;;;;;;5.18;55.08;101361.63;5056640;28;20049;-73
2021/03/05 08:03:17;;;;;;;5.43;3.00;;;;;;;5.24;55.19;101366.13;5050921;28;20057;-72
2021/03/05 08:05:50;;;;;;;5.63;2.47;;;;;;;5.39;54.88;101372.94;5056730;28;20049;-73
2021/03/05 08:08:29;;;;;;;4.35;2.60;;;;;;;5.44;53.49;101371.06;5056513;28;20060;-73
2021/03/05 08:11:03;;;;;;;5.35;2.65;;;;;;;5.62;53.56;101369.88;5053004;28;20486;-73
2021/03/05 08:13:55;;;;;;;5.88;3.15;;;;;;;5.64;52.52;101375.97;5054294;28;20410;-73
2021/03/05 08:16:48;;;;;;;5.03;2.50;;;;;;;5.81;52.39;101377.81;5053493;28;20482;-73
2021/03/05 08:19:49;;;;;;;6.18;2.70;;;;;;;6.02;51.82;101365.91;5058047;28;20076;-73
2021/03/05 08:22:18;;;;;;;7.35;2.80;;;;;;;6.43;50.93;101371.81;5044759;28;20060;-74
2021/03/05 08:25:14;;;;;;;4.72;2.83;;;;;;;6.71;50.60;101380.88;5051684;28;20417;-76
2021/03/05 08:27:42;;;;;;;7.10;3.10;;;;;;;6.70;49.72;101384.75;5056416;28;20065;-73
2021/03/05 08:30:14;;;;;;;7.90;2.63;;;;;;;6.75;50.10;101386.72;5057089;28;20055;-73
2021/03/05 08:33:00;;;;;;;8.43;3.50;;;;;;;6.86;50.58;101380.97;5057633;28;20065;-73
2021/03/05 08:35:51;;;;;;;8.32;5.15;;;;;;;6.98;49.21;101388.25;5055039;28;20061;-73
2021/03/05 08:38:23;;;;;;;7.00;3.58;;;;;;;7.01;49.41;101393.22;5051210;28;20057;-72
2021/03/05 08:41:03;;;;;;;9.75;5.00;;;;;;;6.96;49.44;101390.44;5054021;28;20063;-72
2021/03/05 08:43:32;;;;;;;6.68;3.08;;;;;;;7.04;49.07;101406.56;5056705;28;20052;-73
2021/03/05 08:46:02;;;;;;;9.73;4.53;;;;;;;6.96;49.25;101399.59;5050700;28;20050;-73
2021/03/05 08:48:40;;;;;;;9.48;5.90;;;;;;;6.93;48.79;101405.66;5052545;28;20144;-73
2021/03/05 08:51:14;;;;;;;6.88;3.40;;;;;;;6.93;49.85;101415.91;5057227;28;20053;-72
2021/03/05 08:53:46;;;;;;;7.25;3.35;;;;;;;6.90;50.40;101412.56;5051333;28;20067;-73
2021/03/05 08:56:23;;;;;;;5.70;3.65;;;;;;;6.94;49.40;101412.03;5050599;28;20045;-73
2021/03/05 08:58:57;;;;;;;8.23;4.30;;;;;;;6.78;49.27;101406.38;5047552;28;20056;-72
2021/03/05 09:01:29;;;;;;;6.93;3.67;;;;;;;6.82;49.75;101407.50;5047824;28;20397;-73
2021/03/05 09:04:08;;;;;;;5.20;3.25;;;;;;;6.81;49.39;101418.88;5047244;28;20045;-72
2021/03/05 09:06:35;;;;;;;9.63;4.78;;;;;;;6.96;49.73;101421.75;5051012;28;20116;-73
2021/03/05 09:09:09;;;;;;;5.97;4.00;;;;;;;7.04;49.31;101423.19;5050398;28;20057;-72
2021/03/05 09:11:36;;;;;;;13.32;8.13;;;;;;;6.94;49.08;101426.72;5043030;28;20055;-74
2021/03/05 09:14:22;;;;;;;5.82;4.40;;;;;;;6.80;49.62;101440.16;5050544;28;20044;-72
2021/03/05 09:16:56;;;;;;;7.13;3.70;;;;;;;6.64;49.72;101443.94;5041370;28;20045;-72
2021/03/05 09:19:37;;;;;;;6.07;4.00;;;;;;;6.63;50.33;101440.31;5045650;28;20053;-72
2021/03/05 09:22:13;;;;;;;10.23;5.75;;;;;;;6.60;50.54;101443.63;5051063;28;20049;-73
2021/03/05 09:24:57;;;;;;;13.68;8.90;;;;;;;6.63;49.76;101433.94;5047844;28;20057;-73
2021/03/05 09:27:28;;;;;;;8.73;6.57;;;;;;;6.64;50.66;101439.22;5050052;28;20071;-72
2021/03/05 09:29:56;;;;;;;7.53;4.35;;;;;;;6.66;50.45;101444.50;5052132;28;20517;-72
2021/03/05 09:32:23;;;;;;;7.57;3.80;;;;;;;6.66;49.98;101444.50;5045764;28;20049;-72
2021/03/05 09:34:53;;;;;;;8.73;3.90;;;;;;;6.68;50.35;101443.16;5049585;28;20509;-72
2021/03/05 09:37:22;;;;;;;6.50;3.92;;;;;;;6.76;50.14;101444.59;5046316;28;20049;-72
2021/03/05 09:39:51;;;;;;;8.73;4.40;;;;;;;6.80;50.02;101448.47;5049129;28;20399;-73
2021/03/05 09:42:19;;;;;;;9.77;4.88;;;;;;;6.90;50.15;101456.03;5047418;28;20410;-72
2021/03/05 09:44:47;;;;;;;7.45;4.55;;;;;;;7.13;49.82;101449.28;5043044;28;20057;-72
2021/03/05 09:47:17;;;;;;;6.75;4.45;;;;;;;7.58;48.41;101450.66;5037937;28;20053;-72
2021/03/05 09:49:46;;;;;;;7.55;4.53;;;;;;;7.83;47.97;101454.59;5047552;28;20068;-73
2021/03/05 09:52:26;;;;;;;11.13;5.63;;;;;;;7.98;47.17;101451.03;5048912;28;20518;-73
2021/03/05 09:54:55;;;;;;;7.80;4.85;;;;;;;7.95;46.84;101455.22;5048905;28;20041;-73
2021/03/05 09:57:27;;;;;;;9.18;5.40;;;;;;;8.09;46.90;101447.22;5056712;28;20057;-72
2021/03/05 09:59:59;;;;;;;8.20;4.93;;;;;;;8.14;46.63;101445.25;5048098;28;20419;-72
2021/03/05 10:02:26;;;;;;;8.20;4.95;;;;;;;8.12;47.22;101453.03;5052961;28;20490;-73
2021/03/05 10:04:57;;;;;;;8.82;5.57;;;;;;;8.21;46.24;101453.34;5055586;28;20061;-73
2021/03/05 10:07:28;;;;;;;8.43;5.70;;;;;;;8.37;46.51;101462.53;5052042;28;20878;-74
2021/03/05 10:10:14;;;;;;;8.63;5.60;;;;;;;8.78;45.72;101461.75;5049766;28;20053;-73
2021/03/05 10:12:53;;;;;;;10.80;5.15;;;;;;;9.20;44.69;101464.22;5048739;28;20398;-73
2021/03/05 10:15:25;;;;;;;9.07;5.20;;;;;;;9.46;43.49;101464.97;5052311;28;20061;-73
2021/03/05 10:17:59;;;;;;;10.60;6.05;;;;;;;9.47;44.00;101466.66;5051013;28;20064;-73
2021/03/05 10:20:30;;;;;;;9.65;5.57;;;;;;;9.53;43.51;101475.81;5049430;28;20051;-73
2021/03/05 10:22:59;;;;;;;7.60;5.05;;;;;;;9.55;44.08;101480.00;5055261;28;20068;-73
2021/03/05 10:25:27;;;;;;;6.75;5.30;;;;;;;10.63;40.98;101475.84;5048453;28;20057;-73
2021/03/05 10:27:54;;;;;;;8.05;5.80;;;;;;;13.31;36.24;101467.38;5049527;28;20056;-73
2021/03/05 10:30:25;;;;;;;9.68;5.50;;;;;;;14.01;33.88;101474.63;5051373;28;20053;-73
2021/03/05 10:32:56;;;;;;;6.95;4.90;;;;;;;15.21;31.86;101468.69;5049566;28;20048;-73
2021/03/05 10:35:24;;;;;;;7.93;5.00;;;;;;;14.68;32.98;101472.28;5053076;28;20080;-73
2021/03/05 10:37:53;;;;;;;7.67;5.33;;;;;;;14.66;32.54;101457.75;5050631;28;20056;-73
2021/03/05 10:40:22;;;;;;;9.93;6.40;;;;;;;17.73;27.54;101462.41;5051469;28;20540;-73
2021/03/05 10:42:51;;;;;;;8.00;5.05;;;;;;;22.57;20.92;101465.66;5044947;28;20060;-73
2021/03/05 10:45:21;;;;;;;6.30;5.00;;;;;;;25.47;16.91;101472.34;5053724;28;20068;-73
2021/03/05 10:47:54;;;;;;;6.53;4.18;;;;;;;26.84;15.54;101464.75;5051610;28;20053;-73
2021/03/05 10:50:23;;;;;;;6.10;3.90;;;;;;;26.03;16.35;101481.00;5052016;28;20053;-73
2021/03/05 10:52:50;;;;;;;6.63;4.68;;;;;;;26.27;15.44;101474.66;5052334;28;20498;-73
2021/03/05 10:55:17;;;;;;;5.50;3.95;;;;;;;28.98;13.65;101470.78;5044788;28;20048;-73
2021/03/05 10:57:44;;;;;;;6.18;3.60;;;;;;;28.36;12.93;101481.66;5048439;28;20060;-73
2021/03/05 11:00:12;;;;;;;5.07;3.92;;;;;;;25.98;15.36;101485.03;5040821;28;20048;-73
2021/03/05 11:02:38;;;;;;;5.20;4.10;;;;;;;28.87;12.47;101474.56;5044175;28;20041;-72
2021/03/05 11:05:08;;;;;;;6.47;3.90;;;;;;;29.47;12.19;101484.06;5047814;28;20056;-73
2021/03/05 11:07:35;;;;;;;6.25;3.95;;;;;;;30.28;11.91;101492.41;5044285;28;20050;-73
2021/03/05 11:10:02;;;;;;;6.47;4.00;;;;;;;32.01;11.14;101485.16;5044613;28;20060;-73
2021/03/05 11:12:28;;;;;;;8.25;4.18;;;;;;;30.37;10.95;101486.19;5043127;28;20474;-73
2021/03/05 11:14:55;;;;;;;4.55;3.85;;;;;;;31.88;10.95;101490.72;5047181;28;20048;-73
2021/03/05 11:17:22;;;;;;;6.10;3.45;;;;;;;32.94;9.83;101491.19;5042633;28;20049;-73
2021/03/05 11:19:49;;;;;;;5.43;4.05;;;;;;;32.22;10.37;101495.50;5049608;28;20053;-73
2021/03/05 11:22:16;;;;;;;7.47;4.03;;;;;;;33.14;9.56;101494.88;5046663;28;20045;-73
2021/03/05 11:24:43;;;;;;;5.90;3.90;;;;;;;34.12;8.75;101496.22;5043541;28;20490;-77
2021/03/05 11:27:10;;;;;;;7.22;3.45;;;;;;;30.07;11.42;101499.19;5047387;28;20128;-75
2021/03/05 11:29:37;;;;;;;4.45;3.20;;;;;;;32.02;9.61;101495.41;5047540;28;20450;-75
2021/03/05 11:32:06;;;;;;;4.15;3.55;;;;;;;32.74;9.34;101492.00;5045555;28;20049;-76
2021/03/05 11:34:32;;;;;;;4.50;3.20;;;;;;;34.10;8.66;101481.41;5049265;28;20049;-76
2021/03/05 11:36:59;;;;;;;3.75;2.80;;;;;;;34.39;7.69;101495.13;5046113;28;20050;-75
2021/03/05 11:39:27;;;;;;;4.15;2.50;;;;;;;29.84;10.45;101494.06;5045823;28;20068;-76
2021/03/05 11:41:54;;;;;;;5.07;2.88;;;;;;;27.61;12.29;101504.59;5045705;28;20175;-76
2021/03/05 11:44:24;;;;;;;4.28;2.90;;;;;;;25.89;13.77;101510.25;5049326;28;20057;-76
2021/03/05 11:46:51;;;;;;;5.10;2.70;;;;;;;26.04;13.05;101503.44;5047960;28;20089;-76